Time;durP1;ratioP1;P1;durP2;ratioP2;P2;SDS_P1;SDS_P2;PMS_P1;PMS_P2;Temp;Humidity;BMP_temperature;BMP_pressure;BME280_temperature;BME280_humidity;BME280_pressure;Samples;Min_cycle;Max_cycle;Signal;HPM_P1;HPM_P2
2021/12/03 00:00:16;;;;;;;;;12.50;10.00;;;;;11.41;100.00;101039.75;5089687;27;45291;-78
2021/12/03 00:02:42;;;;;;;;;15.75;12.50;;;;;11.37;100.00;101040.94;5080906;28;45394;-78
2021/12/03 00:05:09;;;;;;;;;13.50;12.25;;;;;11.36;100.00;101036.59;5073669;27;46210;-80
2021/12/03 00:07:37;;;;;;;;;13.00;13.00;;;;;11.36;100.00;101044.50;5075822;27;45410;-79
2021/12/03 00:10:05;;;;;;;;;17.75;13.50;;;;;11.40;100.00;101027.47;5072270;27;45440;-78
2021/12/03 00:12:31;;;;;;;;;17.25;13.50;;;;;11.30;100.00;101029.88;5081249;27;45475;-81
2021/12/03 00:14:56;;;;;;;;;19.00;12.75;;;;;11.27;100.00;101034.53;5047258;28;45436;-79
2021/12/03 00:17:21;;;;;;;;;18.50;12.00;;;;;11.32;100.00;101038.56;5069802;28;45426;-79
2021/12/03 00:19:47;;;;;;;;;14.50;9.50;;;;;11.27;100.00;101034.53;5081765;28;45169;-79
2021/12/03 00:22:13;;;;;;;;;17.50;12.75;;;;;11.32;100.00;101043.00;5086342;27;45481;-79
2021/12/03 00:24:38;;;;;;;;;9.25;7.50;;;;;11.36;100.00;101047.16;5071932;28;45278;-79
2021/12/03 00:27:04;;;;;;;;;12.25;10.00;;;;;11.37;100.00;101047.06;5081565;27;45493;-79
2021/12/03 00:29:30;;;;;;;;;15.00;10.00;;;;;11.29;100.00;101037.94;5082627;27;45527;-81
2021/12/03 00:31:55;;;;;;;;;17.00;12.00;;;;;11.27;100.00;101038.03;5056347;27;47244;-79
2021/12/03 00:34:21;;;;;;;;;14.50;11.00;;;;;11.24;100.00;101038.22;5069128;27;45490;-80
2021/12/03 00:36:46;;;;;;;;;12.75;9.00;;;;;11.25;100.00;101037.28;5068779;27;45545;-79
2021/12/03 00:39:11;;;;;;;;;22.25;11.25;;;;;11.24;100.00;101033.78;5093342;27;45567;-79
2021/12/03 00:41:45;;;;;;;;;13.50;13.00;;;;;11.25;100.00;101030.19;5092363;27;45415;-80
2021/12/03 00:44:11;;;;;;;;;13.25;10.75;;;;;11.25;100.00;101037.28;5100667;27;45692;-79
2021/12/03 00:46:36;;;;;;;;;14.50;10.00;;;;;11.27;100.00;101038.03;5068050;28;45461;-80
2021/12/03 00:49:02;;;;;;;;;18.00;13.50;;;;;11.33;100.00;101044.72;5079482;28;45383;-79
2021/12/03 00:51:27;;;;;;;;;12.75;12.00;;;;;11.27;100.00;101038.03;5082615;27;47067;-79
2021/12/03 00:53:53;;;;;;;;;13.75;10.75;;;;;11.33;100.00;101044.72;5082957;27;45386;-80
2021/12/03 00:56:18;;;;;;;;;20.00;13.50;;;;;11.34;100.00;101052.53;5092731;27;45375;-81
2021/12/03 00:58:44;;;;;;;;;24.25;11.50;;;;;11.37;100.00;101060.28;5072988;28;45570;-80
2021/12/03 01:01:10;;;;;;;;;12.00;9.25;;;;;11.33;100.00;101053.50;5073998;28;45454;-80
2021/12/03 01:03:38;;;;;;;;;16.25;9.25;;;;;11.34;100.00;101057.84;5076261;27;45426;-80
2021/12/03 01:06:04;;;;;;;;;13.25;13.00;;;;;11.28;100.00;101062.69;5052681;27;45284;-80
2021/12/03 01:08:31;;;;;;;;;14.25;10.25;;;;;11.32;100.00;101072.09;5075871;27;45462;-80
2021/12/03 01:10:56;;;;;;;;;10.00;10.00;;;;;11.36;100.00;101071.81;5075740;28;45461;-80
2021/12/03 01:13:22;;;;;;;;;12.50;11.25;;;;;11.39;100.00;101062.81;5065582;27;45707;-80
2021/12/03 01:15:47;;;;;;;;;16.00;9.25;;;;;11.44;100.00;101058.94;5061032;28;45517;-80
2021/12/03 01:18:13;;;;;;;;;16.75;9.75;;;;;11.55;100.00;101071.44;5074375;28;45488;-80
2021/12/03 01:20:43;;;;;;;;;15.25;10.00;;;;;11.55;100.00;101072.28;5073507;28;45483;-81
2021/12/03 01:23:11;;;;;;;;;11.50;9.00;;;;;11.61;100.00;101071.88;5080794;28;45184;-80
2021/12/03 01:25:37;;;;;;;;;14.75;9.00;;;;;11.56;100.00;101068.66;5071048;28;45484;-80
2021/12/03 01:28:03;;;;;;;;;13.50;10.75;;;;;11.61;100.00;101068.38;5072265;28;45479;-80
2021/12/03 01:30:29;;;;;;;;;12.25;10.00;;;;;11.67;100.00;101077.69;5046876;28;47043;-80
2021/12/03 01:32:57;;;;;;;;;14.50;11.00;;;;;11.63;99.98;101083.22;5065762;28;45490;-80
2021/12/03 01:35:23;;;;;;;;;10.25;8.00;;;;;11.59;100.00;101065.84;5071269;28;48636;-80
2021/12/03 01:37:49;;;;;;;;;13.00;9.25;;;;;11.55;100.00;101074.09;5069611;28;45340;-80
2021/12/03 01:40:18;;;;;;;;;16.50;9.00;;;;;11.59;100.00;101078.22;5069363;28;47037;-80
2021/12/03 01:42:44;;;;;;;;;11.75;8.75;;;;;11.59;100.00;101079.06;5069012;28;45566;-80
2021/12/03 01:45:13;;;;;;;;;12.50;9.75;;;;;11.66;100.00;101074.19;5079614;28;45392;-80
2021/12/03 01:47:41;;;;;;;;;12.25;8.50;;;;;11.70;100.00;101070.41;5065736;28;45368;-80
2021/12/03 01:50:08;;;;;;;;;9.25;8.00;;;;;11.70;99.91;101080.16;5061502;28;47397;-80
2021/12/03 01:52:33;;;;;;;;;9.00;9.00;;;;;11.64;99.83;101084.06;5065238;28;46154;-80
2021/12/03 01:55:00;;;;;;;;;10.00;6.00;;;;;11.67;100.00;101094.41;5067647;28;45430;-80
2021/12/03 01:57:26;;;;;;;;;13.50;11.00;;;;;11.60;100.00;101088.69;5058335;28;45387;-80
2021/12/03 01:59:51;;;;;;;;;12.50;8.00;;;;;11.62;100.00;101093.88;5070987;28;45534;-80
2021/12/03 02:02:17;;;;;;;;;9.50;8.00;;;;;11.63;99.97;101098.22;5075207;27;45378;-80
2021/12/03 02:04:42;;;;;;;;;8.00;8.00;;;;;11.57;99.65;101094.19;5065711;27;45529;-80
2021/12/03 02:07:08;;;;;;;;;16.75;8.00;;;;;11.57;99.85;101091.53;5072205;28;45221;-80
2021/12/03 02:09:33;;;;;;;;;14.25;7.50;;;;;11.58;100.00;101085.28;5064133;28;46323;-80
2021/12/03 02:11:59;;;;;;;;;11.25;6.00;;;;;11.60;99.97;101082.56;5058820;28;46135;-80
2021/12/03 02:14:24;;;;;;;;;9.00;8.50;;;;;11.62;100.00;101086.81;5069361;28;45263;-80
2021/12/03 02:16:50;;;;;;;;;12.50;9.00;;;;;11.66;100.00;101090.06;5064933;28;45573;-80
2021/12/03 02:19:15;;;;;;;;;10.00;6.75;;;;;11.76;99.35;101077.09;5076851;28;45594;-80
2021/12/03 02:21:41;;;;;;;;;12.50;9.25;;;;;11.74;99.19;101077.22;5078035;28;45431;-80
2021/12/03 02:24:07;;;;;;;;;7.00;7.00;;;;;11.70;99.28;101078.34;5069317;28;45260;-80
2021/12/03 02:26:32;;;;;;;;;10.00;7.25;;;;;11.79;99.32;101082.22;5066716;27;45443;-80
2021/12/03 02:28:57;;;;;;;;;11.75;7.75;;;;;11.77;99.23;101082.31;5069965;28;46522;-80
2021/12/03 02:31:25;;;;;;;;;15.75;8.25;;;;;11.83;99.32;101092.50;5073625;28;45360;-80
2021/12/03 02:33:51;;;;;;;;;11.25;7.25;;;;;11.79;98.83;101079.56;5060814;28;45385;-80
2021/12/03 02:36:18;;;;;;;;;14.00;8.25;;;;;11.83;99.22;101081.91;5055169;28;45731;-80
2021/12/03 02:38:44;;;;;;;;;7.00;6.75;;;;;11.80;98.86;101083.91;5055610;28;46425;-80
2021/12/03 02:41:09;;;;;;;;;11.50;9.00;;;;;11.76;98.29;101082.41;5065544;28;45646;-80
2021/12/03 02:43:35;;;;;;;;;15.50;7.75;;;;;11.79;98.07;101077.75;5061512;28;45359;-80
2021/12/03 02:46:01;;;;;;;;;16.25;8.75;;;;;11.79;97.80;101083.06;5062542;27;45647;-80
2021/12/03 02:48:27;;;;;;;;;13.50;8.00;;;;;11.83;97.80;101083.72;5054908;28;45987;-80
2021/12/03 02:50:53;;;;;;;;;17.00;11.00;;;;;11.80;98.20;101081.25;5069984;28;45319;-80
2021/12/03 02:53:19;;;;;;;;;10.75;8.75;;;;;11.77;97.92;101070.88;5064729;28;45432;-80
2021/12/03 02:55:45;;;;;;;;;17.00;10.75;;;;;11.86;97.68;101075.53;5082954;28;45362;-80
2021/12/03 02:58:12;;;;;;;;;10.00;10.00;;;;;11.91;97.32;101073.44;5082945;27;45766;-80
2021/12/03 03:00:39;;;;;;;;;10.25;8.50;;;;;11.92;97.08;101057.47;5059561;28;45359;-80
2021/12/03 03:03:05;;;;;;;;;9.75;9.00;;;;;11.90;97.02;101059.38;5068243;28;45277;-80
2021/12/03 03:05:31;;;;;;;;;10.00;10.00;;;;;11.76;97.49;101048.84;5071590;28;46108;-80
2021/12/03 03:07:57;;;;;;;;;13.75;8.50;;;;;11.91;96.80;101044.34;5068763;28;45549;-80
2021/12/03 03:10:28;;;;;;;;;17.00;9.75;;;;;11.74;96.99;101050.75;5081490;28;45510;-80
2021/12/03 03:12:54;;;;;;;;;13.00;8.00;;;;;11.68;97.21;101035.28;5083737;27;45371;-80
2021/12/03 03:15:20;;;;;;;;;13.50;9.50;;;;;11.62;97.29;101038.34;5096524;27;45525;-80
2021/12/03 03:17:46;;;;;;;;;7.75;7.75;;;;;11.61;97.54;101036.63;5074794;28;46276;-80
2021/12/03 03:20:14;;;;;;;;;9.00;9.00;;;;;11.66;97.74;101034.53;5080072;28;45934;-80
2021/12/03 03:22:41;;;;;;;;;11.75;7.25;;;;;11.68;97.52;101032.63;5064600;28;45360;-80
2021/12/03 03:25:10;;;;;;;;;9.25;7.25;;;;;11.67;97.66;101032.72;5064169;28;45329;-80
2021/12/03 03:27:36;;;;;;;;;10.00;6.50;;;;;11.69;97.12;101025.53;5082382;28;45538;-81
2021/12/03 03:30:04;;;;;;;;;8.00;8.00;;;;;11.61;97.30;101034.84;5063274;28;45795;-80
2021/12/03 03:32:30;;;;;;;;;17.00;6.00;;;;;11.75;97.11;101036.56;5076652;28;45406;-80
2021/12/03 03:34:56;;;;;;;;;7.25;6.00;;;;;11.71;96.86;101036.88;5064644;27;45552;-80
2021/12/03 03:37:21;;;;;;;;;9.25;7.75;;;;;11.55;96.86;101037.91;5078364;28;45411;-80
2021/12/03 03:39:47;;;;;;;;;10.75;7.25;;;;;11.53;97.21;101036.31;5066366;28;45241;-80
2021/12/03 03:42:14;;;;;;;;;10.00;10.00;;;;;11.81;97.11;101038.81;5050787;28;45358;-80
2021/12/03 03:44:41;;;;;;;;;13.25;7.25;;;;;11.76;96.84;101042.72;5065933;28;45507;-80
2021/12/03 03:47:07;;;;;;;;;8.25;6.50;;;;;11.84;96.30;101037.75;5071472;28;46968;-80
2021/12/03 03:49:33;;;;;;;;;7.50;5.75;;;;;11.76;96.06;101035.63;5061696;28;45704;-80
2021/12/03 03:52:00;;;;;;;;;9.00;7.25;;;;;11.70;96.25;101040.47;5052154;28;45386;-80
2021/12/03 03:54:27;;;;;;;;;9.75;7.25;;;;;11.72;96.22;101043.84;5057746;28;45547;-80
2021/12/03 03:56:53;;;;;;;;;8.00;6.00;;;;;11.83;95.76;101036.94;5067064;28;45436;-80
2021/12/03 03:59:19;;;;;;;;;7.25;3.25;;;;;11.73;95.57;101045.56;5060016;28;45354;-80
2021/12/03 04:01:49;;;;;;;;;8.75;6.75;;;;;11.64;96.54;101031.16;5063183;28;45161;-80
2021/12/03 04:04:15;;;;;;;;;6.50;5.50;;;;;11.48;96.26;101026.03;5081711;28;45507;-80
2021/12/03 04:06:41;;;;;;;;;8.50;6.50;;;;;11.30;96.78;101016.66;5050020;28;48118;-80
2021/12/03 04:09:08;;;;;;;;;5.75;5.25;;;;;11.32;97.37;101019.22;5063613;28;45277;-80
2021/12/03 04:11:33;;;;;;;;;5.75;5.75;;;;;11.41;97.38;101037.13;5052067;28;45517;-80
2021/12/03 04:13:59;;;;;;;;;7.00;5.00;;;;;11.32;97.39;101016.56;5083595;27;45322;-80
2021/12/03 04:16:25;;;;;;;;;7.00;5.00;;;;;11.32;97.08;101019.22;5084103;27;46786;-80
2021/12/03 04:18:50;;;;;;;;;8.50;6.25;;;;;11.27;97.09;101021.31;5078236;28;45338;-80
2021/12/03 04:21:16;;;;;;;;;5.25;5.25;;;;;11.32;97.30;101006.84;5079343;28;45436;-80
2021/12/03 04:23:42;;;;;;;;;6.75;5.50;;;;;11.32;97.50;101012.13;5068252;28;45398;-80
2021/12/03 04:26:08;;;;;;;;;8.00;4.25;;;;;11.24;97.69;101015.28;5070570;28;45971;-80
2021/12/03 04:28:34;;;;;;;;;8.00;7.25;;;;;11.22;97.38;101019.81;5063291;28;45474;-80
2021/12/03 04:31:00;;;;;;;;;10.25;5.00;;;;;11.31;97.22;101031.59;5069525;27;45622;-80
2021/12/03 04:33:26;;;;;;;;;13.50;5.50;;;;;11.27;97.43;101026.63;5081161;28;45509;-80
2021/12/03 04:35:51;;;;;;;;;7.00;6.00;;;;;11.31;97.09;101034.22;5088728;27;45469;-80
2021/12/03 04:38:17;;;;;;;;;5.25;4.75;;;;;11.29;96.90;101020.25;5072319;28;45513;-80
2021/12/03 04:40:43;;;;;;;;;8.50;7.50;;;;;11.32;97.07;101009.50;5047158;28;45273;-80
2021/12/03 04:43:09;;;;;;;;;9.50;6.75;;;;;11.34;96.98;101022.59;5063524;28;45485;-80
2021/12/03 04:45:35;;;;;;;;;8.75;6.00;;;;;11.43;96.84;101027.28;5074067;28;45576;-80
2021/12/03 04:48:02;;;;;;;;;8.75;6.00;;;;;11.49;96.76;101013.66;5064700;28;47002;-80
2021/12/03 04:50:31;;;;;;;;;9.50;6.75;;;;;11.56;96.16;101009.66;5070561;28;45324;-80
2021/12/03 04:52:57;;;;;;;;;10.00;5.00;;;;;11.55;96.05;101016.75;5080583;28;45234;-80
2021/12/03 04:55:24;;;;;;;;;6.25;6.25;;;;;11.52;95.77;101010.81;5069551;28;45916;-80
2021/12/03 04:57:53;;;;;;;;;12.75;6.00;;;;;11.52;96.05;101009.00;5059215;28;45986;-80
2021/12/03 05:00:32;;;;;;;;;6.50;6.50;;;;;11.53;95.77;101029.22;5079957;27;45506;-80
2021/12/03 05:03:00;;;;;;;;;9.25;5.00;;;;;11.43;95.74;101027.28;5075339;28;45535;-80
2021/12/03 05:05:30;;;;;;;;;8.50;6.00;;;;;11.32;95.30;101016.56;5077391;28;45277;-80
2021/12/03 05:07:58;;;;;;;;;5.00;5.00;;;;;11.28;95.76;101015.94;5071121;28;45408;-80
2021/12/03 05:10:36;;;;;;;;;9.75;5.50;;;;;11.28;96.13;101012.44;5046266;28;45323;-80
2021/12/03 05:13:06;;;;;;;;;9.00;5.00;;;;;11.00;96.69;101002.84;5073420;27;45561;-80
2021/12/03 05:15:33;;;;;;;;;10.75;5.00;;;;;11.04;97.24;100989.31;5084929;27;46065;-80
2021/12/03 05:17:58;;;;;;;;;7.75;5.75;;;;;11.05;96.26;100985.72;5070822;28;45633;-80
2021/12/03 05:20:24;;;;;;;;;6.50;4.75;;;;;11.09;96.33;100973.16;5080745;28;45669;-80
2021/12/03 05:22:49;;;;;;;;;8.00;5.00;;;;;11.11;96.93;100958.03;5066964;28;45409;-80
2021/12/03 05:25:15;;;;;;;;;5.75;4.00;;;;;11.11;96.73;100968.59;5068563;28;45498;-80
2021/12/03 05:27:41;;;;;;;;;7.00;4.00;;;;;11.13;96.68;100975.50;5070746;27;45327;-80
2021/12/03 05:30:08;;;;;;;;;6.00;4.00;;;;;11.15;96.23;100970.97;5078151;27;45273;-79
2021/12/03 05:32:35;;;;;;;;;10.00;5.00;;;;;11.16;96.42;100970.00;5068424;28;45371;-80
2021/12/03 05:35:00;;;;;;;;;7.75;4.50;;;;;11.29;96.60;100987.72;5075464;28;47146;-80
2021/12/03 05:37:26;;;;;;;;;8.50;6.00;;;;;11.24;96.75;100962.41;5069993;28;45315;-80
2021/12/03 05:39:51;;;;;;;;;6.75;5.75;;;;;11.27;96.93;100968.47;5074126;28;45219;-80
2021/12/03 05:42:16;;;;;;;;;10.00;8.00;;;;;11.27;96.84;100973.75;5074795;28;45493;-80
2021/12/03 05:44:42;;;;;;;;;13.00;5.25;;;;;11.38;97.07;100977.34;5080210;28;46104;-80
2021/12/03 05:47:08;;;;;;;;;7.50;5.75;;;;;11.41;96.51;100961.28;5075570;28;45466;-80
2021/12/03 05:49:33;;;;;;;;;6.75;6.00;;;;;11.43;95.59;100974.41;5062061;28;45312;-80
2021/12/03 05:51:59;;;;;;;;;10.25;8.25;;;;;11.37;96.06;100961.59;5072766;27;45801;-80
2021/12/03 05:54:26;;;;;;;;;9.00;7.00;;;;;11.37;96.09;100972.19;5068427;27;45803;-80
2021/12/03 05:56:52;;;;;;;;;14.75;9.00;;;;;11.31;97.18;100960.19;5065235;27;45423;-80
2021/12/03 05:59:17;;;;;;;;;11.25;6.25;;;;;11.30;96.58;100957.66;5064893;27;45977;-80
2021/12/03 06:01:43;;;;;;;;;10.00;6.00;;;;;11.49;96.28;100947.53;5065185;27;45488;-80
2021/12/03 06:04:08;;;;;;;;;9.25;8.00;;;;;11.46;96.07;100942.47;5058366;27;45457;-80
2021/12/03 06:06:34;;;;;;;;;10.00;6.50;;;;;11.47;96.05;100926.47;5059995;27;45469;-80
2021/12/03 06:08:59;;;;;;;;;8.00;5.00;;;;;11.48;95.48;100922.03;5041531;28;45405;-80
2021/12/03 06:11:26;;;;;;;;;9.75;9.00;;;;;11.45;95.57;100930.19;5061267;27;45645;-80
2021/12/03 06:13:52;;;;;;;;;13.50;8.00;;;;;11.41;95.70;100929.56;5046864;27;47023;-80
2021/12/03 06:16:17;;;;;;;;;6.00;6.00;;;;;11.41;95.89;100934.84;5052861;27;45773;-79
2021/12/03 06:18:43;;;;;;;;;10.25;9.00;;;;;11.53;95.51;100934.00;5044531;27;45489;-80
2021/12/03 06:21:10;;;;;;;;;6.00;2.00;;;;;11.66;95.00;100936.66;5060980;27;45289;-80
2021/12/03 06:23:36;;;;;;;;;8.00;5.00;;;;;11.74;94.70;100946.72;5068579;27;45875;-80
2021/12/03 06:26:02;;;;;;;;;8.00;6.00;;;;;11.79;94.47;100937.53;5065829;27;45244;-80
2021/12/03 06:28:29;;;;;;;;;9.25;5.00;;;;;11.91;94.59;100954.38;5064436;27;45341;-80
2021/12/03 06:30:55;;;;;;;;;10.75;6.25;;;;;11.74;93.87;100939.63;5064931;27;45343;-80
2021/12/03 06:33:20;;;;;;;;;5.00;3.25;;;;;11.54;93.64;100948.94;5066555;27;45504;-79
2021/12/03 06:35:47;;;;;;;;;6.00;5.00;;;;;11.59;94.15;100946.81;5059898;28;45434;-80
2021/12/03 06:38:13;;;;;;;;;7.00;5.50;;;;;11.58;94.02;100949.56;5060395;28;45312;-80
2021/12/03 06:40:39;;;;;;;;;6.00;5.00;;;;;11.52;94.10;100944.69;5072865;28;45604;-80
2021/12/03 06:43:04;;;;;;;;;7.25;5.25;;;;;11.64;94.40;100946.50;5078960;27;46196;-80
2021/12/03 06:45:30;;;;;;;;;5.00;5.00;;;;;11.58;94.57;100937.19;5076844;27;45791;-80
2021/12/03 06:47:55;;;;;;;;;8.75;7.50;;;;;11.70;94.20;100951.38;5074114;28;45425;-81
2021/12/03 06:50:21;;;;;;;;;6.75;6.00;;;;;11.78;94.05;100953.50;5071336;28;45350;-80
2021/12/03 06:52:56;;;;;;;;;9.25;5.00;;;;;11.69;93.44;100938.25;5060713;28;47852;-80
2021/12/03 06:55:22;;;;;;;;;5.25;4.75;;;;;11.47;93.73;100938.88;5054887;28;45246;-80
2021/12/03 06:57:47;;;;;;;;;5.50;5.00;;;;;11.31;93.99;100946.97;5063489;28;45450;-82
2021/12/03 07:00:15;;;;;;;;;7.75;5.50;;;;;11.36;94.13;100944.03;5064864;27;45546;-82
2021/12/03 07:02:40;;;;;;;;;9.75;5.00;;;;;11.12;94.98;100947.38;5065562;27;47998;-81
2021/12/03 07:05:08;;;;;;;;;5.00;5.00;;;;;11.17;95.57;100932.06;5090364;27;45438;-82
2021/12/03 07:07:34;;;;;;;;;10.00;6.00;;;;;11.27;95.51;100939.38;5100265;27;45521;-80
2021/12/03 07:10:01;;;;;;;;;5.00;3.25;;;;;11.36;95.41;100947.53;5101813;27;45180;-82
2021/12/03 07:12:27;;;;;;;;;10.25;5.50;;;;;11.59;94.52;100943.31;5062508;28;48192;-81
2021/12/03 07:14:52;;;;;;;;;6.00;5.00;;;;;11.58;94.72;100933.69;5080917;27;45735;-83
2021/12/03 07:17:18;;;;;;;;;6.00;5.00;;;;;11.70;94.64;100937.28;5085672;27;45413;-82
2021/12/03 07:19:43;;;;;;;;;9.25;6.75;;;;;11.74;94.60;100929.06;5082358;27;45501;-83
2021/12/03 07:22:09;;;;;;;;;6.50;6.50;;;;;11.81;93.83;100924.22;5075795;27;45530;-83
2021/12/03 07:24:34;;;;;;;;;6.25;4.75;;;;;11.87;93.88;100921.13;5082428;27;45374;-83
2021/12/03 07:27:00;;;;;;;;;5.50;2.00;;;;;11.82;93.40;100920.59;5078794;27;45779;-82
2021/12/03 07:29:33;;;;;;;;;9.25;6.75;;;;;11.88;94.04;100914.88;5081466;27;45644;-82
2021/12/03 07:31:58;;;;;;;;;6.50;6.50;;;;;11.85;93.83;100915.94;5065956;27;47138;-83
2021/12/03 07:34:24;;;;;;;;;5.00;5.00;;;;;11.79;94.08;100919.00;5081636;28;45454;-83
2021/12/03 07:36:50;;;;;;;;;8.75;5.00;;;;;11.90;94.24;100921.75;5080621;27;45614;-79
2021/12/03 07:39:15;;;;;;;;;8.75;5.00;;;;;11.89;93.98;100925.38;5075456;28;45773;-80
2021/12/03 07:41:41;;;;;;;;;5.25;3.25;;;;;11.83;93.75;100923.16;5064083;27;47182;-82
2021/12/03 07:44:09;;;;;;;;;5.00;5.00;;;;;11.89;93.79;100933.31;5079707;27;45286;-84
2021/12/03 07:46:35;;;;;;;;;5.50;4.75;;;;;11.83;94.01;100925.81;5070318;27;45478;-81
2021/12/03 07:49:00;;;;;;;;;9.50;6.50;;;;;11.88;93.51;100926.31;5079085;28;45375;-83
2021/12/03 07:51:26;;;;;;;;;6.25;5.50;;;;;11.87;92.41;100931.69;5081880;27;45655;-81
2021/12/03 07:53:52;;;;;;;;;5.75;5.75;;;;;11.75;92.55;100929.91;5074095;27;46045;-83
2021/12/03 07:56:17;;;;;;;;;6.50;4.00;;;;;11.78;93.36;100927.91;5067333;27;45502;-82
2021/12/03 07:58:43;;;;;;;;;3.25;3.25;;;;;11.86;93.49;100925.56;5073521;27;45348;-82
2021/12/03 08:01:08;;;;;;;;;6.50;2.50;;;;;11.88;92.59;100925.47;5080570;28;45499;-82
2021/12/03 08:03:34;;;;;;;;;6.75;3.50;;;;;11.83;92.92;100917.00;5070880;28;45375;-82
2021/12/03 08:06:05;;;;;;;;;7.25;5.00;;;;;11.82;92.63;100917.97;5075095;27;45405;-82
2021/12/03 08:08:31;;;;;;;;;4.00;3.25;;;;;11.78;92.50;100917.31;5070164;27;45237;-81
2021/12/03 08:10:56;;;;;;;;;7.00;3.25;;;;;11.83;92.92;100922.31;5073900;27;46077;-79
2021/12/03 08:13:22;;;;;;;;;6.00;2.00;;;;;11.97;92.23;100920.38;5078167;27;45672;-80
2021/12/03 08:15:47;;;;;;;;;6.75;2.25;;;;;11.98;91.59;100914.13;5066484;28;45750;-79
2021/12/03 08:18:14;;;;;;;;;3.00;3.00;;;;;11.80;91.37;100928.66;5081827;28;45238;-78
2021/12/03 08:20:39;;;;;;;;;2.50;2.00;;;;;11.77;91.06;100912.13;5070903;27;45508;-79
2021/12/03 08:23:05;;;;;;;;;5.50;2.00;;;;;11.89;92.05;100912.13;5060035;27;45474;-79
2021/12/03 08:25:31;;;;;;;;;6.50;3.00;;;;;12.02;92.09;100914.75;5072067;27;45538;-79
2021/12/03 08:27:57;;;;;;;;;2.25;2.25;;;;;12.02;91.44;100911.28;5062488;28;45404;-79
2021/12/03 08:30:23;;;;;;;;;3.00;2.00;;;;;12.13;90.41;100921.91;5080470;27;45433;-79
2021/12/03 08:32:49;;;;;;;;;5.00;2.00;;;;;12.10;89.83;100916.88;5065680;27;45427;-80
2021/12/03 08:35:15;;;;;;;;;5.75;2.00;;;;;12.04;89.05;100909.34;5069987;27;45914;-79
2021/12/03 08:37:45;;;;;;;;;6.00;2.00;;;;;12.04;89.29;100922.56;5061131;28;45509;-80
2021/12/03 08:40:11;;;;;;;;;4.00;4.00;;;;;12.12;89.58;100909.63;5078224;28;46182;-79
2021/12/03 08:42:36;;;;;;;;;2.00;2.00;;;;;12.09;89.45;100907.22;5075420;27;45509;-79
2021/12/03 08:45:04;;;;;;;;;1.00;1.00;;;;;12.15;88.44;100918.22;5062534;28;45265;-78
2021/12/03 08:47:30;;;;;;;;;3.00;3.00;;;;;11.94;88.12;100922.38;5088601;27;45555;-81
2021/12/03 08:49:56;;;;;;;;;3.50;2.00;;;;;11.77;88.42;100925.34;5081065;28;45450;-81
2021/12/03 08:55:08;;;;;;;;;5.00;3.00;;;;;11.83;87.39;100915.22;5069344;27;45501;-80
2021/12/03 08:57:35;;;;;;;;;6.75;2.75;;;;;12.03;88.06;100923.53;5091795;27;45597;-80
2021/12/03 09:00:19;;;;;;;;;5.00;2.00;;;;;12.10;87.64;100920.38;5088385;27;47167;-80
2021/12/03 09:02:45;;;;;;;;;6.50;3.00;;;;;12.03;87.68;100912.94;5070098;27;45656;-80
2021/12/03 09:05:11;;;;;;;;;8.75;4.50;;;;;12.14;88.32;100916.53;5082261;27;46519;-80
2021/12/03 09:07:37;;;;;;;;;4.50;3.00;;;;;12.12;87.80;100914.94;5077037;28;45776;-80
2021/12/03 09:10:10;;;;;;;;;6.25;3.00;;;;;12.11;87.65;100922.03;5070884;28;45434;-80
2021/12/03 09:12:36;;;;;;;;;6.25;5.75;;;;;12.09;88.07;100918.66;5080620;28;45346;-80
2021/12/03 09:15:05;;;;;;;;;6.75;4.50;;;;;12.14;87.54;100913.88;5061403;28;45393;-80
2021/12/03 09:20:41;;;;;;;;;5.50;5.25;;;;;12.04;88.68;100912.84;5088728;27;46648;-80
2021/12/03 09:23:15;;;;;;;;;6.50;4.00;;;;;12.06;89.33;100902.16;5076809;27;45459;-80
2021/12/03 09:25:49;;;;;;;;;2.75;2.75;;;;;12.01;90.04;100907.78;5069253;28;45402;-80
2021/12/03 09:28:14;;;;;;;;;2.75;1.50;;;;;11.76;90.77;100900.69;5088461;27;45574;-80
2021/12/03 09:30:41;;;;;;;;;2.25;2.25;;;;;11.70;92.36;100901.09;5062307;28;46349;-80
2021/12/03 09:33:10;;;;;;;;;8.50;3.00;;;;;11.75;94.00;100880.47;5075233;27;45867;-80
2021/12/03 09:35:44;;;;;;;;;4.50;3.00;;;;;11.84;93.76;100882.47;5089287;27;45476;-80
2021/12/03 09:38:09;;;;;;;;;5.50;5.00;;;;;11.90;93.81;100882.06;5066278;27;45541;-80
2021/12/03 09:40:36;;;;;;;;;7.75;3.00;;;;;12.04;93.66;100886.38;5064737;28;47527;-80
2021/12/03 09:43:03;;;;;;;;;3.50;3.00;;;;;12.04;93.41;100885.53;5073841;27;45297;-80
2021/12/03 09:45:29;;;;;;;;;3.75;2.75;;;;;12.02;93.34;100879.50;5086578;27;45545;-79
2021/12/03 09:47:56;;;;;;;;;7.00;3.00;;;;;12.17;93.85;100881.06;5070588;28;45370;-80
2021/12/03 09:50:22;;;;;;;;;5.00;4.00;;;;;12.18;94.33;100872.16;5067658;28;47929;-80
2021/12/03 09:53:13;;;;;;;;;9.25;4.00;;;;;12.23;93.06;100872.66;5082035;27;45676;-80
2021/12/03 09:55:38;;;;;;;;;6.00;5.50;;;;;12.18;94.14;100869.50;5070533;27;45335;-80
2021/12/03 09:58:20;;;;;;;;;5.25;5.25;;;;;12.06;92.78;100863.28;5088320;27;45691;-79
2021/12/03 10:00:57;;;;;;;;;5.50;4.25;;;;;12.19;93.77;100868.56;5058499;27;46305;-80
2021/12/03 10:03:56;;;;;;;;;5.25;5.00;;;;;12.08;93.92;100876.41;5083102;27;45310;-80
2021/12/03 10:12:37;;;;;;;;;7.75;6.00;;;;;12.06;97.51;100868.59;5088232;27;45526;-79
2021/12/03 10:15:17;;;;;;;;;6.00;3.50;;;;;12.14;100.00;100876.81;5082916;27;45395;-80
2021/12/03 10:18:31;;;;;;;;;10.75;5.75;;;;;11.99;100.00;100868.19;5077820;27;45549;-80
2021/12/03 10:26:48;;;;;;;;;8.00;4.50;;;;;11.34;100.00;100841.03;5077116;27;45313;-79
2021/12/03 10:50:24;;;;;;;;;10.25;7.50;;;;;11.55;100.00;100794.59;5067017;27;45516;-79
2021/12/03 11:39:30;;;;;;;;;10.00;5.75;;;;;12.28;100.00;100717.81;5093971;28;44870;-78
2021/12/03 13:08:20;;;;;;;;;9.50;6.00;;;;;12.58;100.00;100537.16;5081694;28;46047;-81
2021/12/03 13:44:37;;;;;;;;;4.25;4.25;;;;;11.01;100.00;100513.91;5080449;28;46296;-80
2021/12/03 14:02:14;;;;;;;;;10.00;4.00;;;;;13.73;100.00;100457.88;5079751;28;46169;-81
2021/12/03 14:10:43;;;;;;;;;8.25;4.00;;;;;13.21;100.00;100434.03;5079989;28;45437;-81
2021/12/03 14:23:24;;;;;;;;;5.00;4.25;;;;;12.61;100.00;100425.66;5079838;28;45281;-81
2021/12/03 14:43:21;;;;;;;;;5.00;2.50;;;;;12.66;100.00;100386.38;5079743;28;45166;-81
2021/12/03 14:46:13;;;;;;;;;1.00;1.00;;;;;12.58;100.00;100386.16;5079501;28;45529;-81
2021/12/03 14:48:47;;;;;;;;;2.75;2.00;;;;;12.30;100.00;100384.91;5083695;28;45446;-81
2021/12/03 14:56:36;;;;;;;;;3.25;1.50;;;;;12.38;100.00;100383.47;5068610;28;45365;-83
2021/12/03 14:59:22;;;;;;;;;4.00;4.00;;;;;12.26;100.00;100361.47;5070058;28;45221;-81
2021/12/03 15:01:59;;;;;;;;;4.75;4.00;;;;;12.23;100.00;100351.13;5056595;28;45516;-81
2021/12/03 15:07:19;;;;;;;;;3.75;1.00;;;;;12.50;100.00;100346.22;5062172;28;45761;-79
2021/12/03 15:09:47;;;;;;;;;3.75;2.00;;;;;12.55;100.00;100348.53;5060989;28;45558;-78
2021/12/03 15:20:16;;;;;;;;;5.25;3.25;;;;;12.81;100.00;100343.72;5065166;28;45336;-79
2021/12/03 15:25:42;;;;;;;;;2.00;2.00;;;;;12.36;100.00;100339.44;5064305;28;45568;-79
2021/12/03 15:36:00;;;;;;;;;6.00;3.50;;;;;12.26;100.00;100321.75;5062887;27;45708;-79
2021/12/03 15:57:45;;;;;;;;;4.00;3.25;;;;;13.74;100.00;100287.06;5064007;28;45466;-78
2021/12/03 16:08:22;;;;;;;;;7.50;3.50;;;;;13.75;100.00;100272.78;5075355;27;45746;-80
2021/12/03 16:11:10;;;;;;;;;2.50;2.50;;;;;13.66;100.00;100270.09;5047922;27;46608;-79
2021/12/03 16:13:51;;;;;;;;;5.50;3.25;;;;;13.60;100.00;100274.16;5056910;27;45614;-80
2021/12/03 16:21:52;;;;;;;;;5.00;5.00;;;;;13.67;100.00;100234.63;5063079;27;45651;-80
2021/12/03 16:53:40;;;;;;;;;6.50;5.00;;;;;14.63;100.00;100181.59;5085847;27;45544;-80
2021/12/03 16:56:12;;;;;;;;;6.75;4.75;;;;;14.59;100.00;100178.38;5061072;27;45391;-80
2021/12/03 16:58:40;;;;;;;;;5.00;5.00;;;;;14.69;100.00;100167.75;5061088;27;45446;-80
2021/12/03 17:01:20;;;;;;;;;5.75;5.75;;;;;14.65;100.00;100158.41;5058280;27;45548;-80
2021/12/03 17:12:25;;;;;;;;;9.50;5.50;;;;;14.94;100.00;100153.81;5073021;27;45485;-81